Time,TemperatureF,DewpointF,PressureIn,WindDirection,WindDirectionDegrees,WindSpeedMPH,WindSpeedGustMPH,Humidity,HourlyPrecipIn,Conditions,Clouds,dailyrainin,SoftwareType,DateUTC
2013-09-27 00:01:00,51.9,49.1,30.12,NNE,25,0.0,1.0,90,0.00,,,0.00,WeatherCatV1.15B25,2013-09-27 04:01:00,
2013-09-27 00:06:00,51.8,49.0,30.12,NNE,25,0.0,0.0,90,0.00,,,0.00,WeatherCatV1.15B25,2013-09-27 04:06:00,
2013-09-27 00:11:00,51.7,48.6,30.12,NNE,25,0.0,0.0,89,0.00,,,0.00,WeatherCatV1.15B25,2013-09-27 04:11:00,
2013-09-27 00:16:00,51.6,48.8,30.12,NNE,25,0.0,0.0,90,0.00,,,0.00,WeatherCatV1.15B25,2013-09-27 04:16:00,
2013-09-27 00:21:00,51.4,48.6,30.11,NNE,25,0.0,0.0,90,0.00,,,0.00,WeatherCatV1.15B25,2013-09-27 04:21:00,
2013-09-27 00:26:00,51.3,48.5,30.12,NNE,25,0.0,0.0,90,0.00,,,0.00,WeatherCatV1.15B25,2013-09-27 04:26:00,
2013-09-27 00:31:00,51.2,48.4,30.12,NNE,25,0.0,0.0,90,0.00,,,0.00,WeatherCatV1.15B25,2013-09-27 04:31:00,
2013-09-27 00:36:00,51.1,48.3,30.12,NNE,25,0.0,0.0,90,0.00,,,0.00,WeatherCatV1.15B25,2013-09-27 04:36:00,
2013-09-27 00:41:00,51.0,48.2,30.12,NNE,25,0.0,0.0,90,0.00,,,0.00,WeatherCatV1.15B25,2013-09-27 04:41:00,
2013-09-27 00:46:00,50.8,48.3,30.12,NNE,25,0.0,1.0,91,0.00,,,0.00,WeatherCatV1.15B25,2013-09-27 04:46:00,
2013-09-27 00:51:00,50.7,48.2,30.12,NNE,25,0.0,0.0,91,0.00,,,0.00,WeatherCatV1.15B25,2013-09-27 04:51:00,
2013-09-27 00:56:00,50.5,48.0,30.12,NNE,25,0.0,0.0,91,0.00,,,0.00,WeatherCatV1.15B25,2013-09-27 04:56:00,
2013-09-27 01:01:00,50.3,48.1,30.12,NNE,25,0.0,0.0,92,0.00,,,0.00,WeatherCatV1.15B25,2013-09-27 05:01:00,
2013-09-27 01:06:00,50.2,48.0,30.12,NNW,348,0.0,1.0,92,0.00,,,0.00,WeatherCatV1.15B25,2013-09-27 05:06:00,
2013-09-27 01:11:00,50.0,47.8,30.12,NNW,348,0.0,1.0,92,0.00,,,0.00,WeatherCatV1.15B25,2013-09-27 05:11:00,
2013-09-27 01:16:00,50.0,47.8,30.12,NNW,348,0.0,0.0,92,0.00,,,0.00,WeatherCatV1.15B25,2013-09-27 05:16:00,
2013-09-27 01:21:00,49.9,48.0,30.13,NNW,348,0.0,0.0,93,0.00,,,0.00,WeatherCatV1.15B25,2013-09-27 05:21:00,
2013-09-27 01:26:00,49.7,47.8,30.13,NNW,347,0.0,0.0,93,0.00,,,0.00,WeatherCatV1.15B25,2013-09-27 05:26:00,
2013-09-27 01:31:00,49.6,47.7,30.13,NNW,348,0.0,0.0,93,0.00,,,0.00,WeatherCatV1.15B25,2013-09-27 05:31:00,
2013-09-27 01:36:00,49.4,47.5,30.13,NNW,348,0.0,1.0,93,0.00,,,0.00,WeatherCatV1.15B25,2013-09-27 05:36:00,
2013-09-27 01:41:00,49.3,47.6,30.13,NNW,347,0.0,0.0,94,0.00,,,0.00,WeatherCatV1.15B25,2013-09-27 05:41:00,
2013-09-27 01:46:00,49.2,47.5,30.13,NNW,348,0.0,0.0,94,0.00,,,0.00,WeatherCatV1.15B25,2013-09-27 05:46:00,
2013-09-27 01:51:00,49.1,47.4,30.13,NNW,348,0.0,0.0,94,0.00,,,0.00,WeatherCatV1.15B25,2013-09-27 05:51:00,
2013-09-27 01:56:00,49.0,47.3,30.13,NNW,348,0.0,0.0,94,0.00,,,0.00,WeatherCatV1.15B25,2013-09-27 05:56:00,
2013-09-27 02:01:00,48.9,47.5,30.13,NNW,348,0.0,0.0,95,0.00,,,0.00,WeatherCatV1.15B25,2013-09-27 06:01:00,
2013-09-27 02:06:00,48.7,47.3,30.13,NNW,348,0.0,1.0,95,0.00,,,0.00,WeatherCatV1.15B25,2013-09-27 06:06:00,
2013-09-27 02:11:00,48.6,47.2,30.14,NNW,348,0.0,1.0,95,0.00,,,0.00,WeatherCatV1.15B25,2013-09-27 06:11:00,
2013-09-27 02:16:00,48.5,47.1,30.14,NNW,348,0.0,0.0,95,0.00,,,0.00,WeatherCatV1.15B25,2013-09-27 06:16:00,
2013-09-27 02:21:00,48.5,47.4,30.13,NNW,348,0.0,0.0,96,0.00,,,0.00,WeatherCatV1.15B25,2013-09-27 06:21:00,
2013-09-27 02:26:00,48.3,47.2,30.13,NNW,348,0.0,0.0,96,0.00,,,0.00,WeatherCatV1.15B25,2013-09-27 06:26:00,
2013-09-27 02:31:00,48.3,47.2,30.13,NNW,348,0.0,0.0,96,0.00,,,0.00,WeatherCatV1.15B25,2013-09-27 06:31:00,
2013-09-27 02:36:00,48.1,47.0,30.13,NNW,348,0.0,0.0,96,0.00,,,0.00,WeatherCatV1.15B25,2013-09-27 06:36:00,
2013-09-27 02:41:00,48.1,47.0,30.13,NNW,344,0.0,0.0,96,0.00,,,0.00,WeatherCatV1.15B25,2013-09-27 06:41:00,
2013-09-27 02:46:00,48.0,46.9,30.13,NNW,344,0.0,0.0,96,0.00,,,0.00,WeatherCatV1.15B25,2013-09-27 06:46:00,
2013-09-27 02:51:00,47.9,46.8,30.13,NNW,344,0.0,0.0,96,0.00,,,0.00,WeatherCatV1.15B25,2013-09-27 06:51:00,
2013-09-27 02:56:00,47.9,46.8,30.13,NNW,344,0.0,0.0,96,0.00,,,0.00,WeatherCatV1.15B25,2013-09-27 06:56:00,
2013-09-27 03:01:00,47.8,47.0,30.13,NNW,344,0.0,0.0,97,0.00,,,0.00,WeatherCatV1.15B25,2013-09-27 07:01:00,
2013-09-27 03:06:00,47.8,47.0,30.13,NNW,344,0.0,0.0,97,0.00,,,0.00,WeatherCatV1.15B25,2013-09-27 07:06:00,
2013-09-27 03:11:00,47.8,47.0,30.13,NNW,344,0.0,0.0,97,0.00,,,0.00,WeatherCatV1.15B25,2013-09-27 07:11:00,
2013-09-27 03:16:00,47.7,46.9,30.13,NNW,344,0.0,0.0,97,0.00,,,0.00,WeatherCatV1.15B25,2013-09-27 07:16:00,
2013-09-27 03:21:00,47.7,46.9,30.13,NW,318,0.0,0.0,97,0.00,,,0.00,WeatherCatV1.15B25,2013-09-27 07:21:00,
2013-09-27 03:26:00,47.6,46.8,30.13,NW,319,0.0,1.0,97,0.00,,,0.00,WeatherCatV1.15B25,2013-09-27 07:26:00,
2013-09-27 03:31:00,47.6,46.8,30.13,NW,319,0.0,0.0,97,0.00,,,0.00,WeatherCatV1.15B25,2013-09-27 07:31:00,
2013-09-27 03:36:00,47.5,46.7,30.14,NW,318,0.0,0.0,97,0.00,,,0.00,WeatherCatV1.15B25,2013-09-27 07:36:00,
2013-09-27 03:41:00,47.5,46.7,30.14,NW,319,0.0,0.0,97,0.00,,,0.00,WeatherCatV1.15B25,2013-09-27 07:41:00,
2013-09-27 03:46:00,47.4,46.6,30.14,NW,319,1.0,1.0,97,0.00,,,0.00,WeatherCatV1.15B25,2013-09-27 07:46:00,
2013-09-27 03:49:00,47.4,46.6,30.14,NW,318,0.0,0.0,97,0.00,,,0.00,WeatherCatV1.15B25,2013-09-27 07:49:00,
2013-09-27 03:54:00,47.4,46.6,30.14,NW,319,0.0,1.0,97,0.00,,,0.00,WeatherCatV1.15B25,2013-09-27 07:54:00,
2013-09-27 03:59:00,47.4,46.6,30.14,NW,319,0.0,0.0,97,0.00,,,0.00,WeatherCatV1.15B25,2013-09-27 07:59:00,
2013-09-27 04:04:00,47.3,46.5,30.15,NW,318,0.0,0.0,97,0.00,,,0.00,WeatherCatV1.15B25,2013-09-27 08:04:00,
2013-09-27 04:09:00,47.3,46.5,30.15,NW,318,0.0,0.0,97,0.00,,,0.00,WeatherCatV1.15B25,2013-09-27 08:09:00,
2013-09-27 04:14:00,47.3,46.8,30.14,ENE,60,0.0,1.0,98,0.00,,,0.00,WeatherCatV1.15B25,2013-09-27 08:14:00,
2013-09-27 04:19:00,47.3,46.8,30.15,ENE,60,0.0,0.0,98,0.00,,,0.00,WeatherCatV1.15B25,2013-09-27 08:19:00,
2013-09-27 04:24:00,47.3,46.8,30.15,ENE,60,0.0,0.0,98,0.00,,,0.00,WeatherCatV1.15B25,2013-09-27 08:24:00,
2013-09-27 04:29:00,47.3,46.8,30.15,NE,45,0.0,1.0,98,0.00,,,0.00,WeatherCatV1.15B25,2013-09-27 08:29:00,
2013-09-27 04:34:00,47.4,46.9,30.15,NE,49,1.0,1.0,98,0.00,,,0.00,WeatherCatV1.15B25,2013-09-27 08:34:00,
2013-09-27 04:39:00,47.5,47.0,30.15,NE,45,1.0,1.0,98,0.00,,,0.00,WeatherCatV1.15B25,2013-09-27 08:39:00,
2013-09-27 04:44:00,47.6,47.1,30.15,NE,51,0.0,1.0,98,0.00,,,0.00,WeatherCatV1.15B25,2013-09-27 08:44:00,
2013-09-27 04:49:00,47.6,47.1,30.15,NE,44,1.0,1.0,98,0.00,,,0.00,WeatherCatV1.15B25,2013-09-27 08:49:00,
2013-09-27 04:54:00,47.6,47.1,30.16,NE,55,0.0,0.0,98,0.00,,,0.00,WeatherCatV1.15B25,2013-09-27 08:54:00,
2013-09-27 04:59:00,47.7,47.2,30.16,NE,51,0.0,2.0,98,0.00,,,0.00,WeatherCatV1.15B25,2013-09-27 08:59:00,
2013-09-27 05:04:00,47.7,47.2,30.16,NE,53,0.0,1.0,98,0.00,,,0.00,WeatherCatV1.15B25,2013-09-27 09:04:00,
2013-09-27 05:09:00,47.7,47.2,30.16,NE,54,0.0,1.0,98,0.00,,,0.00,WeatherCatV1.15B25,2013-09-27 09:09:00,
2013-09-27 05:14:00,47.7,47.2,30.16,NE,46,0.0,1.0,98,0.00,,,0.00,WeatherCatV1.15B25,2013-09-27 09:14:00,
2013-09-27 05:19:00,47.7,47.2,30.16,NE,47,0.0,1.0,98,0.00,,,0.00,WeatherCatV1.15B25,2013-09-27 09:19:00,
2013-09-27 05:24:00,47.7,47.2,30.16,NE,47,0.0,0.0,98,0.00,,,0.00,WeatherCatV1.15B25,2013-09-27 09:24:00,
2013-09-27 05:29:00,47.7,47.2,30.16,NE,36,0.0,2.0,98,0.00,,,0.00,WeatherCatV1.15B25,2013-09-27 09:29:00,
2013-09-27 05:34:00,47.7,47.2,30.16,NE,49,0.0,1.0,98,0.00,,,0.00,WeatherCatV1.15B25,2013-09-27 09:34:00,
2013-09-27 05:39:00,47.6,47.1,30.17,NE,46,1.0,1.0,98,0.00,,,0.00,WeatherCatV1.15B25,2013-09-27 09:39:00,
2013-09-27 05:44:00,47.6,47.1,30.17,NE,45,0.0,1.0,98,0.00,,,0.00,WeatherCatV1.15B25,2013-09-27 09:44:00,
2013-09-27 05:49:00,47.6,47.1,30.17,NE,45,0.0,0.0,98,0.00,,,0.00,WeatherCatV1.15B25,2013-09-27 09:49:00,
2013-09-27 05:54:00,47.6,47.1,30.17,NE,45,0.0,1.0,98,0.00,,,0.00,WeatherCatV1.15B25,2013-09-27 09:54:00,
2013-09-27 05:59:00,47.5,47.0,30.17,NE,45,0.0,1.0,98,0.00,,,0.00,WeatherCatV1.15B25,2013-09-27 09:59:00,
2013-09-27 06:04:00,47.4,46.9,30.17,NE,45,0.0,1.0,98,0.00,,,0.00,WeatherCatV1.15B25,2013-09-27 10:04:00,
2013-09-27 06:09:00,47.4,46.9,30.17,NE,45,0.0,0.0,98,0.00,,,0.00,WeatherCatV1.15B25,2013-09-27 10:09:00,
2013-09-27 06:14:00,47.3,46.8,30.17,East,85,0.0,1.0,98,0.00,,,0.00,WeatherCatV1.15B25,2013-09-27 10:14:00,
2013-09-27 06:19:00,47.3,46.8,30.17,East,85,0.0,1.0,98,0.00,,,0.00,WeatherCatV1.15B25,2013-09-27 10:19:00,
2013-09-27 06:24:00,47.2,46.7,30.18,East,82,0.0,0.0,98,0.00,,,0.00,WeatherCatV1.15B25,2013-09-27 10:24:00,
2013-09-27 06:29:00,47.1,46.6,30.18,East,82,0.0,0.0,98,0.00,,,0.00,WeatherCatV1.15B25,2013-09-27 10:29:00,
2013-09-27 06:34:00,47.0,46.5,30.18,East,82,0.0,0.0,98,0.00,,,0.00,WeatherCatV1.15B25,2013-09-27 10:34:00,
2013-09-27 06:39:00,47.0,46.5,30.18,ENE,65,0.0,1.0,98,0.00,,,0.00,WeatherCatV1.15B25,2013-09-27 10:39:00,
2013-09-27 06:44:00,46.9,46.4,30.18,NE,55,0.0,0.0,98,0.00,,,0.00,WeatherCatV1.15B25,2013-09-27 10:44:00,
2013-09-27 06:49:00,46.9,46.4,30.18,NE,55,0.0,0.0,98,0.00,,,0.00,WeatherCatV1.15B25,2013-09-27 10:49:00,
2013-09-27 06:54:00,46.9,46.4,30.18,NE,55,0.0,0.0,98,0.00,,,0.00,WeatherCatV1.15B25,2013-09-27 10:54:00,
2013-09-27 06:59:00,47.0,46.5,30.19,NE,55,0.0,0.0,98,0.00,,,0.00,WeatherCatV1.15B25,2013-09-27 10:59:00,
2013-09-27 07:04:00,47.0,46.5,30.19,NE,46,0.0,2.0,98,0.00,,,0.00,WeatherCatV1.15B25,2013-09-27 11:04:00,
2013-09-27 07:09:00,47.0,46.5,30.19,NE,46,0.0,0.0,98,0.00,,,0.00,WeatherCatV1.15B25,2013-09-27 11:09:00,
2013-09-27 07:14:00,47.0,46.5,30.19,NE,46,0.0,0.0,98,0.00,,,0.00,WeatherCatV1.15B25,2013-09-27 11:14:00,
2013-09-27 07:19:00,47.0,46.5,30.20,NE,47,0.0,0.0,98,0.00,,,0.00,WeatherCatV1.15B25,2013-09-27 11:19:00,
2013-09-27 07:24:00,47.1,46.6,30.20,NE,47,0.0,0.0,98,0.00,,,0.00,WeatherCatV1.15B25,2013-09-27 11:24:00,
2013-09-27 07:29:00,47.2,46.7,30.20,NE,46,0.0,0.0,98,0.00,,,0.00,WeatherCatV1.15B25,2013-09-27 11:29:00,
2013-09-27 07:34:00,47.3,46.8,30.20,NE,46,0.0,0.0,98,0.00,,,0.00,WeatherCatV1.15B25,2013-09-27 11:34:00,
2013-09-27 07:39:00,47.4,46.9,30.20,NE,47,0.0,0.0,98,0.00,,,0.00,WeatherCatV1.15B25,2013-09-27 11:39:00,
2013-09-27 07:44:00,47.5,47.0,30.21,NE,47,0.0,0.0,98,0.00,,,0.00,WeatherCatV1.15B25,2013-09-27 11:44:00,
2013-09-27 07:49:00,47.6,47.1,30.21,NE,47,0.0,0.0,98,0.00,,,0.00,WeatherCatV1.15B25,2013-09-27 11:49:00,
2013-09-27 07:54:00,47.8,47.3,30.21,NE,45,0.0,1.0,98,0.00,,,0.00,WeatherCatV1.15B25,2013-09-27 11:54:00,
2013-09-27 07:59:00,47.9,47.4,30.21,NE,46,0.0,0.0,98,0.00,,,0.00,WeatherCatV1.15B25,2013-09-27 11:59:00,
2013-09-27 08:04:00,48.0,47.5,30.21,NE,46,0.0,0.0,98,0.00,,,0.00,WeatherCatV1.15B25,2013-09-27 12:04:00,
2013-09-27 08:09:00,48.2,47.7,30.21,NE,45,0.0,0.0,98,0.00,,,0.00,WeatherCatV1.15B25,2013-09-27 12:09:00,
2013-09-27 08:14:00,48.3,47.8,30.22,NE,45,1.0,1.0,98,0.00,,,0.00,WeatherCatV1.15B25,2013-09-27 12:14:00,
2013-09-27 08:19:00,48.5,48.0,30.22,NE,46,0.0,0.0,98,0.00,,,0.00,WeatherCatV1.15B25,2013-09-27 12:19:00,
2013-09-27 08:24:00,48.6,48.1,30.22,NE,46,0.0,1.0,98,0.00,,,0.00,WeatherCatV1.15B25,2013-09-27 12:24:00,
2013-09-27 08:29:00,48.8,48.3,30.22,NE,45,0.0,1.0,98,0.00,,,0.00,WeatherCatV1.15B25,2013-09-27 12:29:00,
2013-09-27 08:34:00,48.9,48.4,30.22,NE,46,0.0,0.0,98,0.00,,,0.00,WeatherCatV1.15B25,2013-09-27 12:34:00,
2013-09-27 08:39:00,49.1,48.6,30.22,NE,43,0.0,0.0,98,0.00,,,0.00,WeatherCatV1.15B25,2013-09-27 12:39:00,
2013-09-27 08:44:00,49.2,48.7,30.22,NE,42,0.0,1.0,98,0.00,,,0.00,WeatherCatV1.15B25,2013-09-27 12:44:00,
2013-09-27 08:49:00,49.5,49.0,30.22,NE,43,0.0,0.0,98,0.00,,,0.00,WeatherCatV1.15B25,2013-09-27 12:49:00,
2013-09-27 08:54:00,49.7,48.9,30.22,NE,43,0.0,0.0,97,0.00,,,0.00,WeatherCatV1.15B25,2013-09-27 12:54:00,
2013-09-27 08:59:00,50.0,49.2,30.23,NE,43,0.0,0.0,97,0.00,,,0.00,WeatherCatV1.15B25,2013-09-27 12:59:00,
2013-09-27 09:00:00,49.9,49.1,30.23,NE,42,0.0,1.0,97,0.00,,,0.00,WeatherCatV1.15B25,2013-09-27 13:00:00,
2013-09-27 09:05:00,50.4,49.6,30.23,NE,42,0.0,0.0,97,0.00,,,0.00,WeatherCatV1.15B25,2013-09-27 13:05:00,
2013-09-27 09:10:00,50.6,49.5,30.23,NE,42,0.0,0.0,96,0.00,,,0.00,WeatherCatV1.15B25,2013-09-27 13:10:00,
2013-09-27 09:15:00,50.9,49.8,30.23,NE,42,0.0,0.0,96,0.00,,,0.00,WeatherCatV1.15B25,2013-09-27 13:15:00,
2013-09-27 09:20:00,51.2,50.1,30.23,NE,42,0.0,0.0,96,0.00,,,0.00,WeatherCatV1.15B25,2013-09-27 13:20:00,
2013-09-27 09:25:00,51.6,50.2,30.23,NE,42,0.0,0.0,95,0.00,,,0.00,WeatherCatV1.15B25,2013-09-27 13:25:00,
2013-09-27 09:30:00,51.6,49.9,30.23,NE,42,0.0,0.0,94,0.00,,,0.00,WeatherCatV1.15B25,2013-09-27 13:30:00,
2013-09-27 09:35:00,51.8,50.1,30.24,NE,42,0.0,1.0,94,0.00,,,0.00,WeatherCatV1.15B25,2013-09-27 13:35:00,
2013-09-27 09:40:00,52.0,50.3,30.24,NE,42,0.0,0.0,94,0.00,,,0.00,WeatherCatV1.15B25,2013-09-27 13:40:00,
2013-09-27 09:45:00,52.3,50.6,30.24,North,356,0.0,0.0,94,0.00,,,0.00,WeatherCatV1.15B25,2013-09-27 13:45:00,
2013-09-27 09:50:00,52.6,50.6,30.24,North,357,0.0,0.0,93,0.00,,,0.00,WeatherCatV1.15B25,2013-09-27 13:50:00,
2013-09-27 09:55:00,52.9,51.2,30.24,North,359,0.0,0.0,94,0.00,,,0.00,WeatherCatV1.15B25,2013-09-27 13:55:00,
2013-09-27 10:00:00,53.2,51.2,30.24,North,359,0.0,0.0,93,0.00,,,0.00,WeatherCatV1.15B25,2013-09-27 14:00:00,
2013-09-27 10:05:00,53.4,51.1,30.24,NNE,18,0.0,0.0,92,0.00,,,0.00,WeatherCatV1.15B25,2013-09-27 14:05:00,
2013-09-27 10:10:00,53.5,51.2,30.24,NE,41,0.0,0.0,92,0.00,,,0.00,WeatherCatV1.15B25,2013-09-27 14:10:00,
2013-09-27 10:15:00,53.8,51.2,30.25,NE,49,0.0,1.0,91,0.00,,,0.00,WeatherCatV1.15B25,2013-09-27 14:15:00,
2013-09-27 10:20:00,53.9,51.3,30.25,NE,50,0.0,0.0,91,0.00,,,0.00,WeatherCatV1.15B25,2013-09-27 14:20:00,
2013-09-27 10:25:00,54.2,51.6,30.25,NE,50,0.0,0.0,91,0.00,,,0.00,WeatherCatV1.15B25,2013-09-27 14:25:00,
2013-09-27 10:30:00,54.4,51.5,30.25,NE,55,0.0,0.0,90,0.00,,,0.00,WeatherCatV1.15B25,2013-09-27 14:30:00,
2013-09-27 10:35:00,54.7,51.8,30.25,ENE,59,0.0,0.0,90,0.00,,,0.00,WeatherCatV1.15B25,2013-09-27 14:35:00,
2013-09-27 10:40:00,55.0,52.1,30.25,ENE,60,0.0,0.0,90,0.00,,,0.00,WeatherCatV1.15B25,2013-09-27 14:40:00,
2013-09-27 10:45:00,55.4,52.5,30.25,ENE,60,0.0,0.0,90,0.00,,,0.00,WeatherCatV1.15B25,2013-09-27 14:45:00,
2013-09-27 10:50:00,55.7,52.2,30.24,ENE,60,0.0,0.0,88,0.00,,,0.00,WeatherCatV1.15B25,2013-09-27 14:50:00,
2013-09-27 10:55:00,55.9,52.7,30.25,ENE,60,0.0,0.0,89,0.00,,,0.00,WeatherCatV1.15B25,2013-09-27 14:55:00,
2013-09-27 11:00:00,56.3,53.1,30.24,ENE,71,0.0,0.0,89,0.00,,,0.00,WeatherCatV1.15B25,2013-09-27 15:00:00,
2013-09-27 11:05:00,56.7,53.5,30.24,East,88,0.0,0.0,89,0.00,,,0.00,WeatherCatV1.15B25,2013-09-27 15:05:00,
2013-09-27 11:10:00,56.9,53.1,30.24,East,94,0.0,0.0,87,0.00,,,0.00,WeatherCatV1.15B25,2013-09-27 15:10:00,
2013-09-27 11:15:00,57.1,52.9,30.24,East,95,0.0,0.0,86,0.00,,,0.00,WeatherCatV1.15B25,2013-09-27 15:15:00,
2013-09-27 11:20:00,57.3,53.8,30.24,East,95,0.0,0.0,88,0.00,,,0.00,WeatherCatV1.15B25,2013-09-27 15:20:00,
2013-09-27 11:25:00,57.5,54.0,30.24,East,95,0.0,0.0,88,0.00,,,0.00,WeatherCatV1.15B25,2013-09-27 15:25:00,
2013-09-27 11:30:00,57.8,54.3,30.24,East,95,0.0,0.0,88,0.00,,,0.00,WeatherCatV1.15B25,2013-09-27 15:30:00,
2013-09-27 11:35:00,57.8,53.6,30.24,East,95,0.0,0.0,86,0.00,,,0.00,WeatherCatV1.15B25,2013-09-27 15:35:00,
2013-09-27 11:40:00,57.8,53.6,30.24,East,95,0.0,0.0,86,0.00,,,0.00,WeatherCatV1.15B25,2013-09-27 15:40:00,
2013-09-27 11:45:00,57.9,53.4,30.24,East,95,0.0,0.0,85,0.00,,,0.00,WeatherCatV1.15B25,2013-09-27 15:45:00,
2013-09-27 11:50:00,58.0,53.5,30.24,East,95,0.0,0.0,85,0.00,,,0.00,WeatherCatV1.15B25,2013-09-27 15:50:00,
2013-09-27 11:55:00,58.3,54.1,30.24,East,95,0.0,0.0,86,0.00,,,0.00,WeatherCatV1.15B25,2013-09-27 15:55:00,
2013-09-27 12:00:00,58.3,53.5,30.24,East,95,0.0,0.0,84,0.00,,,0.00,WeatherCatV1.15B25,2013-09-27 16:00:00,
2013-09-27 12:05:00,58.4,53.6,30.24,East,95,0.0,0.0,84,0.00,,,0.00,WeatherCatV1.15B25,2013-09-27 16:05:00,
2013-09-27 12:10:00,58.4,53.6,30.24,East,95,0.0,0.0,84,0.00,,,0.00,WeatherCatV1.15B25,2013-09-27 16:10:00,
2013-09-27 12:15:00,58.4,53.6,30.24,East,95,0.0,0.0,84,0.00,,,0.00,WeatherCatV1.15B25,2013-09-27 16:15:00,
2013-09-27 12:20:00,58.2,53.4,30.24,East,95,0.0,0.0,84,0.00,,,0.00,WeatherCatV1.15B25,2013-09-27 16:20:00,
2013-09-27 12:25:00,58.1,53.6,30.24,East,95,0.0,0.0,85,0.00,,,0.00,WeatherCatV1.15B25,2013-09-27 16:25:00,
2013-09-27 12:30:00,58.1,53.6,30.24,East,95,0.0,0.0,85,0.00,,,0.00,WeatherCatV1.15B25,2013-09-27 16:30:00,
2013-09-27 12:35:00,58.2,53.7,30.24,East,95,0.0,0.0,85,0.00,,,0.00,WeatherCatV1.15B25,2013-09-27 16:35:00,
2013-09-27 12:40:00,58.3,53.8,30.24,East,95,0.0,0.0,85,0.00,,,0.00,WeatherCatV1.15B25,2013-09-27 16:40:00,
2013-09-27 12:45:00,58.2,53.4,30.24,East,95,0.0,0.0,84,0.00,,,0.00,WeatherCatV1.15B25,2013-09-27 16:45:00,
2013-09-27 12:50:00,58.2,53.7,30.24,East,95,0.0,0.0,85,0.00,,,0.00,WeatherCatV1.15B25,2013-09-27 16:50:00,
2013-09-27 12:55:00,58.2,54.0,30.24,East,95,0.0,0.0,86,0.00,,,0.00,WeatherCatV1.15B25,2013-09-27 16:55:00,
2013-09-27 13:00:00,58.1,53.0,30.24,East,95,0.0,0.0,83,0.00,,,0.00,WeatherCatV1.15B25,2013-09-27 17:00:00,
2013-09-27 13:05:00,58.1,53.6,30.24,East,95,0.0,0.0,85,0.00,,,0.00,WeatherCatV1.15B25,2013-09-27 17:05:00,
2013-09-27 13:10:00,58.3,54.1,30.23,East,95,0.0,0.0,86,0.00,,,0.00,WeatherCatV1.15B25,2013-09-27 17:10:00,
2013-09-27 13:15:00,58.4,53.6,30.23,East,95,0.0,0.0,84,0.00,,,0.00,WeatherCatV1.15B25,2013-09-27 17:15:00,
2013-09-27 13:20:00,58.5,53.7,30.23,East,95,0.0,0.0,84,0.00,,,0.00,WeatherCatV1.15B25,2013-09-27 17:20:00,
2013-09-27 13:25:00,58.6,53.5,30.23,East,95,0.0,0.0,83,0.00,,,0.00,WeatherCatV1.15B25,2013-09-27 17:25:00,
2013-09-27 13:30:00,59.0,54.2,30.23,East,95,0.0,1.0,84,0.00,,,0.00,WeatherCatV1.15B25,2013-09-27 17:30:00,
2013-09-27 13:35:00,59.0,53.8,30.22,East,95,0.0,0.0,83,0.00,,,0.00,WeatherCatV1.15B25,2013-09-27 17:35:00,
2013-09-27 13:40:00,58.9,53.7,30.22,East,95,0.0,0.0,83,0.00,,,0.00,WeatherCatV1.15B25,2013-09-27 17:40:00,
2013-09-27 13:45:00,58.8,53.6,30.22,East,95,0.0,0.0,83,0.00,,,0.00,WeatherCatV1.15B25,2013-09-27 17:45:00,
2013-09-27 13:50:00,58.7,53.9,30.22,East,95,0.0,0.0,84,0.00,,,0.00,WeatherCatV1.15B25,2013-09-27 17:50:00,
2013-09-27 13:55:00,58.6,53.5,30.22,East,95,0.0,0.0,83,0.00,,,0.00,WeatherCatV1.15B25,2013-09-27 17:55:00,
2013-09-27 14:00:00,58.5,53.4,30.22,East,95,0.0,0.0,83,0.00,,,0.00,WeatherCatV1.15B25,2013-09-27 18:00:00,
2013-09-27 14:05:00,58.6,53.5,30.22,East,95,0.0,0.0,83,0.00,,,0.00,WeatherCatV1.15B25,2013-09-27 18:05:00,
2013-09-27 14:10:00,58.6,53.5,30.22,East,95,0.0,0.0,83,0.00,,,0.00,WeatherCatV1.15B25,2013-09-27 18:10:00,
2013-09-27 14:15:00,58.7,53.9,30.22,East,95,0.0,0.0,84,0.00,,,0.00,WeatherCatV1.15B25,2013-09-27 18:15:00,
2013-09-27 14:20:00,58.8,54.0,30.22,East,95,0.0,0.0,84,0.00,,,0.00,WeatherCatV1.15B25,2013-09-27 18:20:00,
2013-09-27 14:25:00,58.7,53.5,30.22,East,95,0.0,0.0,83,0.00,,,0.00,WeatherCatV1.15B25,2013-09-27 18:25:00,
2013-09-27 14:30:00,58.6,53.8,30.22,East,95,0.0,0.0,84,0.00,,,0.00,WeatherCatV1.15B25,2013-09-27 18:30:00,
2013-09-27 14:35:00,58.5,53.7,30.22,East,95,0.0,0.0,84,0.00,,,0.00,WeatherCatV1.15B25,2013-09-27 18:35:00,
2013-09-27 14:40:00,58.5,54.0,30.22,East,95,0.0,0.0,85,0.00,,,0.00,WeatherCatV1.15B25,2013-09-27 18:40:00,
2013-09-27 14:45:00,58.4,53.6,30.22,East,95,0.0,0.0,84,0.00,,,0.00,WeatherCatV1.15B25,2013-09-27 18:45:00,
2013-09-27 14:50:00,58.4,53.9,30.22,East,95,0.0,0.0,85,0.00,,,0.00,WeatherCatV1.15B25,2013-09-27 18:50:00,
2013-09-27 14:55:00,58.4,53.9,30.22,East,95,0.0,0.0,85,0.00,,,0.00,WeatherCatV1.15B25,2013-09-27 18:55:00,
2013-09-27 15:00:00,58.4,53.9,30.22,East,95,0.0,0.0,85,0.00,,,0.00,WeatherCatV1.15B25,2013-09-27 19:00:00,
2013-09-27 15:05:00,58.5,54.3,30.22,East,95,0.0,0.0,86,0.00,,,0.00,WeatherCatV1.15B25,2013-09-27 19:05:00,
2013-09-27 15:10:00,58.5,54.0,30.22,East,95,0.0,0.0,85,0.00,,,0.00,WeatherCatV1.15B25,2013-09-27 19:10:00,
2013-09-27 15:15:00,58.4,53.9,30.21,East,95,0.0,0.0,85,0.00,,,0.00,WeatherCatV1.15B25,2013-09-27 19:15:00,
2013-09-27 15:20:00,58.5,54.3,30.21,East,95,0.0,0.0,86,0.00,,,0.00,WeatherCatV1.15B25,2013-09-27 19:20:00,
2013-09-27 15:25:00,58.6,54.4,30.22,East,95,0.0,0.0,86,0.00,,,0.00,WeatherCatV1.15B25,2013-09-27 19:25:00,
2013-09-27 15:30:00,58.7,54.2,30.22,East,95,0.0,0.0,85,0.00,,,0.00,WeatherCatV1.15B25,2013-09-27 19:30:00,
2013-09-27 15:35:00,58.9,54.7,30.22,East,95,0.0,0.0,86,0.00,,,0.00,WeatherCatV1.15B25,2013-09-27 19:35:00,
2013-09-27 15:40:00,59.0,54.8,30.22,East,95,0.0,0.0,86,0.00,,,0.00,WeatherCatV1.15B25,2013-09-27 19:40:00,
2013-09-27 15:45:00,59.0,54.8,30.22,East,95,0.0,0.0,86,0.00,,,0.00,WeatherCatV1.15B25,2013-09-27 19:45:00,
2013-09-27 15:50:00,59.0,55.1,30.22,East,95,0.0,0.0,87,0.00,,,0.00,WeatherCatV1.15B25,2013-09-27 19:50:00,
2013-09-27 15:55:00,59.0,54.2,30.21,East,95,0.0,0.0,84,0.00,,,0.00,WeatherCatV1.15B25,2013-09-27 19:55:00,
2013-09-27 16:00:00,58.9,54.1,30.22,East,95,0.0,0.0,84,0.00,,,0.00,WeatherCatV1.15B25,2013-09-27 20:00:00,
2013-09-27 16:05:00,58.8,54.6,30.22,East,95,0.0,0.0,86,0.00,,,0.00,WeatherCatV1.15B25,2013-09-27 20:05:00,
2013-09-27 16:10:00,58.7,54.5,30.22,East,95,0.0,0.0,86,0.00,,,0.00,WeatherCatV1.15B25,2013-09-27 20:10:00,
2013-09-27 16:15:00,58.6,54.4,30.21,East,95,0.0,0.0,86,0.00,,,0.00,WeatherCatV1.15B25,2013-09-27 20:15:00,
2013-09-27 16:20:00,58.7,54.8,30.22,East,95,0.0,0.0,87,0.00,,,0.00,WeatherCatV1.15B25,2013-09-27 20:20:00,
2013-09-27 16:25:00,58.7,54.8,30.22,East,95,0.0,0.0,87,0.00,,,0.00,WeatherCatV1.15B25,2013-09-27 20:25:00,
2013-09-27 16:30:00,58.9,54.7,30.22,East,93,0.0,0.0,86,0.00,,,0.00,WeatherCatV1.15B25,2013-09-27 20:30:00,
2013-09-27 16:35:00,59.0,54.5,30.22,East,92,0.0,0.0,85,0.00,,,0.00,WeatherCatV1.15B25,2013-09-27 20:35:00,
2013-09-27 16:40:00,59.0,54.5,30.22,East,92,0.0,0.0,85,0.00,,,0.00,WeatherCatV1.15B25,2013-09-27 20:40:00,
2013-09-27 16:45:00,58.9,54.7,30.22,East,92,0.0,0.0,86,0.00,,,0.00,WeatherCatV1.15B25,2013-09-27 20:45:00,
2013-09-27 16:50:00,58.8,54.9,30.22,East,92,0.0,0.0,87,0.00,,,0.00,WeatherCatV1.15B25,2013-09-27 20:50:00,
2013-09-27 16:55:00,58.6,54.4,30.22,East,92,0.0,0.0,86,0.00,,,0.00,WeatherCatV1.15B25,2013-09-27 20:55:00,
2013-09-27 17:00:00,58.4,53.9,30.22,East,92,0.0,0.0,85,0.00,,,0.00,WeatherCatV1.15B25,2013-09-27 21:00:00,
2013-09-27 17:05:00,58.2,54.3,30.22,East,92,0.0,0.0,87,0.00,,,0.00,WeatherCatV1.15B25,2013-09-27 21:05:00,
2013-09-27 17:10:00,58.1,54.2,30.22,East,92,0.0,0.0,87,0.00,,,0.00,WeatherCatV1.15B25,2013-09-27 21:10:00,
2013-09-27 17:15:00,58.0,53.8,30.22,East,92,0.0,0.0,86,0.00,,,0.00,WeatherCatV1.15B25,2013-09-27 21:15:00,
2013-09-27 17:20:00,58.0,54.2,30.22,East,92,0.0,0.0,87,0.00,,,0.00,WeatherCatV1.15B25,2013-09-27 21:20:00,
2013-09-27 17:25:00,57.8,54.3,30.22,East,92,0.0,0.0,88,0.00,,,0.00,WeatherCatV1.15B25,2013-09-27 21:25:00,
2013-09-27 17:30:00,57.7,54.2,30.22,East,92,0.0,0.0,88,0.00,,,0.00,WeatherCatV1.15B25,2013-09-27 21:30:00,
2013-09-27 17:35:00,57.5,54.0,30.22,East,92,0.0,0.0,88,0.00,,,0.00,WeatherCatV1.15B25,2013-09-27 21:35:00,
2013-09-27 17:40:00,57.5,54.0,30.22,East,92,0.0,0.0,88,0.00,,,0.00,WeatherCatV1.15B25,2013-09-27 21:40:00,
2013-09-27 17:45:00,57.3,53.8,30.22,East,92,0.0,0.0,88,0.00,,,0.00,WeatherCatV1.15B25,2013-09-27 21:45:00,
2013-09-27 17:50:00,57.2,54.0,30.22,East,92,0.0,0.0,89,0.00,,,0.00,WeatherCatV1.15B25,2013-09-27 21:50:00,
2013-09-27 17:55:00,57.1,53.9,30.22,East,92,0.0,0.0,89,0.00,,,0.00,WeatherCatV1.15B25,2013-09-27 21:55:00,
2013-09-27 18:00:00,56.9,54.0,30.23,East,92,0.0,0.0,90,0.00,,,0.00,WeatherCatV1.15B25,2013-09-27 22:00:00,
2013-09-27 18:05:00,56.8,53.9,30.23,East,92,0.0,0.0,90,0.00,,,0.00,WeatherCatV1.15B25,2013-09-27 22:05:00,
2013-09-27 18:10:00,56.7,53.8,30.23,East,92,0.0,0.0,90,0.00,,,0.00,WeatherCatV1.15B25,2013-09-27 22:10:00,
2013-09-27 18:15:00,56.6,53.7,30.23,East,92,0.0,0.0,90,0.00,,,0.00,WeatherCatV1.15B25,2013-09-27 22:15:00,
2013-09-27 18:20:00,56.4,53.8,30.23,East,92,0.0,0.0,91,0.00,,,0.00,WeatherCatV1.15B25,2013-09-27 22:20:00,
2013-09-27 18:25:00,56.3,53.7,30.23,East,92,0.0,0.0,91,0.00,,,0.00,WeatherCatV1.15B25,2013-09-27 22:25:00,
2013-09-27 18:30:00,56.2,53.6,30.23,East,92,0.0,0.0,91,0.00,,,0.00,WeatherCatV1.15B25,2013-09-27 22:30:00,
2013-09-27 18:35:00,56.1,53.5,30.23,East,92,0.0,0.0,91,0.00,,,0.00,WeatherCatV1.15B25,2013-09-27 22:35:00,
2013-09-27 18:40:00,56.0,53.4,30.23,East,92,0.0,0.0,91,0.00,,,0.00,WeatherCatV1.15B25,2013-09-27 22:40:00,
2013-09-27 18:45:00,55.9,53.3,30.23,East,92,0.0,0.0,91,0.00,,,0.00,WeatherCatV1.15B25,2013-09-27 22:45:00,
2013-09-27 18:50:00,55.8,53.2,30.23,East,92,0.0,0.0,91,0.00,,,0.00,WeatherCatV1.15B25,2013-09-27 22:50:00,
2013-09-27 18:55:00,55.7,53.1,30.23,East,92,0.0,0.0,91,0.00,,,0.00,WeatherCatV1.15B25,2013-09-27 22:55:00,
2013-09-27 19:00:00,55.7,53.1,30.24,East,92,0.0,0.0,91,0.00,,,0.00,WeatherCatV1.15B25,2013-09-27 23:00:00,
2013-09-27 19:05:00,55.6,53.0,30.24,East,92,0.0,0.0,91,0.00,,,0.00,WeatherCatV1.15B25,2013-09-27 23:05:00,
2013-09-27 19:10:00,55.5,52.9,30.24,East,92,0.0,0.0,91,0.00,,,0.00,WeatherCatV1.15B25,2013-09-27 23:10:00,
2013-09-27 19:15:00,55.5,52.9,30.24,East,92,0.0,0.0,91,0.00,,,0.00,WeatherCatV1.15B25,2013-09-27 23:15:00,
2013-09-27 19:20:00,55.5,52.9,30.24,East,92,0.0,0.0,91,0.00,,,0.00,WeatherCatV1.15B25,2013-09-27 23:20:00,
2013-09-27 19:25:00,55.4,52.8,30.24,East,92,0.0,0.0,91,0.00,,,0.00,WeatherCatV1.15B25,2013-09-27 23:25:00,
2013-09-27 19:30:00,55.4,53.1,30.24,East,92,0.0,0.0,92,0.00,,,0.00,WeatherCatV1.15B25,2013-09-27 23:30:00,
2013-09-27 19:35:00,55.4,53.1,30.24,East,92,0.0,0.0,92,0.00,,,0.00,WeatherCatV1.15B25,2013-09-27 23:35:00,
2013-09-27 19:40:00,55.3,53.0,30.24,East,92,0.0,0.0,92,0.00,,,0.00,WeatherCatV1.15B25,2013-09-27 23:40:00,
2013-09-27 19:45:00,55.2,52.9,30.24,East,92,0.0,0.0,92,0.00,,,0.00,WeatherCatV1.15B25,2013-09-27 23:45:00,
2013-09-27 19:50:00,55.2,52.9,30.25,East,92,0.0,0.0,92,0.00,,,0.00,WeatherCatV1.15B25,2013-09-27 23:50:00,
2013-09-27 19:55:00,55.2,53.2,30.24,East,92,0.0,0.0,93,0.00,,,0.00,WeatherCatV1.15B25,2013-09-27 23:55:00,
2013-09-27 20:00:00,55.1,53.1,30.25,East,92,0.0,0.0,93,0.00,,,0.00,WeatherCatV1.15B25,2013-09-28 00:00:00,
2013-09-27 20:05:00,55.1,53.1,30.25,East,92,0.0,0.0,93,0.00,,,0.00,WeatherCatV1.15B25,2013-09-28 00:05:00,
2013-09-27 20:10:00,55.0,53.0,30.25,East,92,0.0,0.0,93,0.00,,,0.00,WeatherCatV1.15B25,2013-09-28 00:10:00,
2013-09-27 20:15:00,54.9,52.9,30.25,East,92,0.0,0.0,93,0.00,,,0.00,WeatherCatV1.15B25,2013-09-28 00:15:00,
2013-09-27 20:20:00,54.8,52.8,30.25,East,92,0.0,0.0,93,0.00,,,0.00,WeatherCatV1.15B25,2013-09-28 00:20:00,
2013-09-27 20:25:00,54.7,52.7,30.25,East,92,0.0,0.0,93,0.00,,,0.00,WeatherCatV1.15B25,2013-09-28 00:25:00,
2013-09-27 20:30:00,54.6,52.6,30.25,East,92,0.0,0.0,93,0.00,,,0.00,WeatherCatV1.15B25,2013-09-28 00:30:00,
2013-09-27 20:35:00,54.5,52.5,30.25,East,92,0.0,0.0,93,0.00,,,0.00,WeatherCatV1.15B25,2013-09-28 00:35:00,
2013-09-27 20:49:00,54.4,52.4,30.25,East,92,0.0,0.0,93,0.00,,,0.00,WeatherCatV1.15B25,2013-09-28 00:49:00,
2013-09-27 20:54:00,54.1,52.1,30.25,East,93,0.0,0.0,93,0.00,,,0.00,WeatherCatV1.15B25,2013-09-28 00:54:00,
2013-09-27 20:59:00,54.1,52.4,30.25,East,93,0.0,0.0,94,0.00,,,0.00,WeatherCatV1.15B25,2013-09-28 00:59:00,
2013-09-27 21:04:00,54.0,52.0,30.25,East,92,0.0,0.0,93,0.00,,,0.00,WeatherCatV1.15B25,2013-09-28 01:04:00,
2013-09-27 21:09:00,54.0,52.3,30.25,East,93,0.0,0.0,94,0.00,,,0.00,WeatherCatV1.15B25,2013-09-28 01:09:00,
2013-09-27 21:14:00,54.0,52.0,30.26,East,93,0.0,0.0,93,0.00,,,0.00,WeatherCatV1.15B25,2013-09-28 01:14:00,
2013-09-27 21:19:00,53.9,51.9,30.26,East,93,0.0,0.0,93,0.00,,,0.00,WeatherCatV1.15B25,2013-09-28 01:19:00,
2013-09-27 21:24:00,53.9,51.9,30.26,East,93,0.0,0.0,93,0.00,,,0.00,WeatherCatV1.15B25,2013-09-28 01:24:00,
2013-09-27 21:29:00,53.8,51.8,30.26,East,93,0.0,0.0,93,0.00,,,0.00,WeatherCatV1.15B25,2013-09-28 01:29:00,
2013-09-27 21:34:00,53.8,51.8,30.26,East,92,0.0,0.0,93,0.00,,,0.00,WeatherCatV1.15B25,2013-09-28 01:34:00,
2013-09-27 21:39:00,53.7,51.7,30.26,East,93,0.0,0.0,93,0.00,,,0.00,WeatherCatV1.15B25,2013-09-28 01:39:00,
2013-09-27 21:44:00,53.7,52.0,30.26,East,93,0.0,0.0,94,0.00,,,0.00,WeatherCatV1.15B25,2013-09-28 01:44:00,
2013-09-27 21:49:00,53.7,52.0,30.26,East,93,0.0,0.0,94,0.00,,,0.00,WeatherCatV1.15B25,2013-09-28 01:49:00,
2013-09-27 21:54:00,53.6,51.9,30.26,East,93,0.0,0.0,94,0.00,,,0.00,WeatherCatV1.15B25,2013-09-28 01:54:00,
2013-09-27 21:59:00,53.6,51.9,30.26,East,93,0.0,1.0,94,0.00,,,0.00,WeatherCatV1.15B25,2013-09-28 01:59:00,
2013-09-27 22:04:00,53.6,51.9,30.27,East,93,0.0,0.0,94,0.00,,,0.00,WeatherCatV1.15B25,2013-09-28 02:04:00,
2013-09-27 22:09:00,53.5,51.8,30.27,East,93,0.0,0.0,94,0.00,,,0.00,WeatherCatV1.15B25,2013-09-28 02:09:00,
2013-09-27 22:14:00,53.5,51.8,30.27,East,93,0.0,0.0,94,0.00,,,0.00,WeatherCatV1.15B25,2013-09-28 02:14:00,
2013-09-27 22:19:00,53.4,51.7,30.27,East,93,0.0,0.0,94,0.00,,,0.00,WeatherCatV1.15B25,2013-09-28 02:19:00,
2013-09-27 22:24:00,53.4,51.7,30.28,East,93,0.0,0.0,94,0.00,,,0.00,WeatherCatV1.15B25,2013-09-28 02:24:00,
2013-09-27 22:29:00,53.3,51.6,30.28,East,92,0.0,0.0,94,0.00,,,0.00,WeatherCatV1.15B25,2013-09-28 02:29:00,
2013-09-27 22:34:00,53.3,51.6,30.28,East,92,0.0,0.0,94,0.00,,,0.00,WeatherCatV1.15B25,2013-09-28 02:34:00,
2013-09-27 22:39:00,53.3,51.6,30.28,East,93,0.0,0.0,94,0.00,,,0.00,WeatherCatV1.15B25,2013-09-28 02:39:00,
2013-09-27 22:44:00,53.2,51.5,30.28,East,93,0.0,0.0,94,0.00,,,0.00,WeatherCatV1.15B25,2013-09-28 02:44:00,
2013-09-27 22:49:00,53.2,51.8,30.28,East,93,0.0,0.0,95,0.00,,,0.00,WeatherCatV1.15B25,2013-09-28 02:49:00,
2013-09-27 22:54:00,53.2,51.8,30.28,East,93,0.0,0.0,95,0.00,,,0.00,WeatherCatV1.15B25,2013-09-28 02:54:00,
2013-09-27 22:59:00,53.2,51.5,30.28,East,93,0.0,0.0,94,0.00,,,0.00,WeatherCatV1.15B25,2013-09-28 02:59:00,
2013-09-27 23:04:00,53.2,51.8,30.28,East,93,0.0,0.0,95,0.00,,,0.00,WeatherCatV1.15B25,2013-09-28 03:04:00,
2013-09-27 23:09:00,53.1,51.4,30.28,East,93,0.0,0.0,94,0.00,,,0.00,WeatherCatV1.15B25,2013-09-28 03:09:00,
2013-09-27 23:14:00,53.1,51.7,30.28,East,93,0.0,0.0,95,0.00,,,0.00,WeatherCatV1.15B25,2013-09-28 03:14:00,
2013-09-27 23:19:00,53.2,51.8,30.28,East,93,0.0,0.0,95,0.00,,,0.00,WeatherCatV1.15B25,2013-09-28 03:19:00,
2013-09-27 23:24:00,53.1,51.7,30.28,East,91,0.0,0.0,95,0.00,,,0.00,WeatherCatV1.15B25,2013-09-28 03:24:00,
2013-09-27 23:29:00,53.0,51.6,30.28,East,91,0.0,0.0,95,0.00,,,0.00,WeatherCatV1.15B25,2013-09-28 03:29:00,
2013-09-27 23:34:00,53.0,51.6,30.28,East,91,0.0,0.0,95,0.00,,,0.00,WeatherCatV1.15B25,2013-09-28 03:34:00,
2013-09-27 23:39:00,53.0,51.6,30.28,East,92,0.0,0.0,95,0.00,,,0.00,WeatherCatV1.15B25,2013-09-28 03:39:00,
2013-09-27 23:44:00,53.0,51.6,30.28,East,91,0.0,0.0,95,0.00,,,0.00,WeatherCatV1.15B25,2013-09-28 03:44:00,
2013-09-27 23:49:00,52.9,51.5,30.28,East,91,0.0,0.0,95,0.00,,,0.00,WeatherCatV1.15B25,2013-09-28 03:49:00,
2013-09-27 23:54:00,52.9,51.5,30.28,East,92,0.0,0.0,95,0.00,,,0.00,WeatherCatV1.15B25,2013-09-28 03:54:00,
2013-09-27 23:59:00,52.8,51.4,30.28,East,91,0.0,0.0,95,0.00,,,0.00,WeatherCatV1.15B25,2013-09-28 03:59:00,